createdAt,value
2019-03-26T00:02:05.510Z,2.79
2019-03-26T00:04:37.681Z,2.74
2019-03-26T00:07:09.833Z,2.70
2019-03-26T00:09:42.010Z,2.68
2019-03-26T00:12:14.776Z,2.68
2019-03-26T00:14:46.831Z,2.65
2019-03-26T00:17:19.090Z,2.63
2019-03-26T00:19:51.353Z,2.60
2019-03-26T00:22:23.541Z,2.52
2019-03-26T00:24:55.698Z,2.51
2019-03-26T00:27:28.110Z,2.56
2019-03-26T00:30:00.546Z,2.48
2019-03-26T00:32:32.714Z,2.48
2019-03-26T00:35:04.892Z,2.52
2019-03-26T00:37:36.889Z,2.51
2019-03-26T00:40:13.119Z,2.53
2019-03-26T00:42:45.658Z,2.51
2019-03-26T00:45:17.756Z,2.50
2019-03-26T00:47:49.970Z,2.52
2019-03-26T00:50:22.098Z,2.50
2019-03-26T00:52:54.359Z,2.40
2019-03-26T00:55:26.363Z,2.26
2019-03-26T00:58:01.505Z,2.29
2019-03-26T01:00:40.216Z,2.30
2019-03-26T01:03:12.396Z,2.26
2019-03-26T01:05:45.668Z,2.29
2019-03-26T01:08:17.686Z,2.31
2019-03-26T01:10:49.554Z,2.28
2019-03-26T01:13:21.750Z,2.28
2019-03-26T01:15:53.852Z,2.30
2019-03-26T01:18:25.966Z,2.29
2019-03-26T01:20:58.011Z,2.27
2019-03-26T01:23:29.950Z,2.35
2019-03-26T01:26:02.019Z,2.33
2019-03-26T01:28:34.214Z,2.22
2019-03-26T01:31:06.557Z,2.18
2019-03-26T01:33:38.610Z,2.01
2019-03-26T01:36:10.754Z,2.07
2019-03-26T01:38:43.118Z,2.10
2019-03-26T01:41:15.426Z,1.96
2019-03-26T01:43:47.491Z,1.83
2019-03-26T01:46:19.721Z,1.88
2019-03-26T01:48:51.711Z,1.96
2019-03-26T01:51:23.932Z,1.91
2019-03-26T01:53:56.536Z,1.99
2019-03-26T01:56:29.598Z,2.12
2019-03-26T01:59:01.760Z,2.23
2019-03-26T02:01:33.775Z,2.22
2019-03-26T02:04:06.999Z,2.25
2019-03-26T02:06:39.155Z,2.17
2019-03-26T02:09:11.260Z,1.99
2019-03-26T02:11:43.400Z,1.80
2019-03-26T02:14:15.738Z,1.71
2019-03-26T02:16:47.831Z,1.76
2019-03-26T02:19:19.827Z,1.75
2019-03-26T02:21:51.869Z,1.55
2019-03-26T02:24:23.882Z,1.61
2019-03-26T02:26:56.352Z,1.53
2019-03-26T02:29:28.547Z,1.52
2019-03-26T02:32:00.380Z,1.40
2019-03-26T02:34:32.645Z,1.41
2019-03-26T02:37:05.309Z,1.32
2019-03-26T02:39:37.377Z,1.22
2019-03-26T02:42:08.107Z,1.17
2019-03-26T02:44:38.573Z,1.17
2019-03-26T02:47:09.196Z,1.13
2019-03-26T02:49:39.819Z,1.16
2019-03-26T02:52:10.260Z,1.20
2019-03-26T02:54:41.042Z,1.23
2019-03-26T02:57:11.551Z,1.30
2019-03-26T02:59:42.362Z,1.26
2019-03-26T03:02:13.914Z,1.27
2019-03-26T03:04:44.625Z,1.37
2019-03-26T03:07:15.288Z,1.37
2019-03-26T03:09:46.143Z,1.43
2019-03-26T03:12:16.630Z,1.46
2019-03-26T03:14:47.204Z,1.43
2019-03-26T03:17:17.806Z,1.43
2019-03-26T03:19:48.425Z,1.47
2019-03-26T03:22:19.080Z,1.53
2019-03-26T03:24:49.915Z,1.56
2019-03-26T03:27:20.445Z,1.50
2019-03-26T03:29:51.003Z,1.56
2019-03-26T03:32:21.475Z,1.40
2019-03-26T03:34:52.043Z,1.48
2019-03-26T03:37:22.659Z,1.49
2019-03-26T03:39:53.212Z,1.39
2019-03-26T03:42:23.641Z,1.39
2019-03-26T03:44:54.308Z,1.31
2019-03-26T03:47:26.347Z,1.38
2019-03-26T03:49:57.114Z,1.38
2019-03-26T03:52:28.965Z,1.38
2019-03-26T03:54:59.801Z,1.40
2019-03-26T03:57:31.750Z,1.44
2019-03-26T04:00:03.622Z,1.40
2019-03-26T04:02:34.026Z,1.45
2019-03-26T04:05:04.869Z,1.50
2019-03-26T04:07:35.532Z,1.47
2019-03-26T04:10:06.588Z,1.55
2019-03-26T04:12:37.352Z,1.58
2019-03-26T04:15:07.833Z,1.64
2019-03-26T04:17:38.340Z,1.63
2019-03-26T04:20:08.773Z,1.66
2019-03-26T04:22:39.276Z,1.64
2019-03-26T04:25:09.710Z,1.60
2019-03-26T04:27:40.288Z,1.65
2019-03-26T04:30:10.969Z,1.67
2019-03-26T04:32:41.549Z,1.67
2019-03-26T04:35:12.039Z,1.73
2019-03-26T04:37:42.458Z,1.71
2019-03-26T04:40:13.157Z,1.73
2019-03-26T04:42:43.617Z,1.76
2019-03-26T04:45:14.233Z,1.80
2019-03-26T04:47:44.900Z,1.80
2019-03-26T04:50:15.582Z,1.80
2019-03-26T04:52:46.223Z,1.81
2019-03-26T04:55:16.573Z,1.76
2019-03-26T04:57:47.122Z,1.72
2019-03-26T05:00:17.814Z,1.71
2019-03-26T05:02:48.401Z,1.78
2019-03-26T05:05:18.923Z,1.80
2019-03-26T05:07:49.348Z,1.84
2019-03-26T05:10:19.880Z,1.82
2019-03-26T05:12:50.320Z,1.75
2019-03-26T05:15:20.968Z,1.73
2019-03-26T05:17:51.303Z,1.73
2019-03-26T05:20:21.724Z,1.80
2019-03-26T05:22:52.230Z,1.79
2019-03-26T05:25:22.700Z,1.81
2019-03-26T05:27:53.266Z,1.82
2019-03-26T05:30:23.987Z,1.87
2019-03-26T05:32:54.656Z,1.93
2019-03-26T05:35:25.312Z,1.87
2019-03-26T05:37:55.804Z,1.83
2019-03-26T05:40:27.321Z,1.88
2019-03-26T05:42:57.675Z,1.86
2019-03-26T05:45:28.719Z,1.89
2019-03-26T05:47:59.538Z,1.90
2019-03-26T05:50:30.367Z,1.94
2019-03-26T05:53:01.363Z,1.93
2019-03-26T05:55:32.049Z,1.94
2019-03-26T05:58:02.470Z,1.97
2019-03-26T06:00:33.209Z,1.98
2019-03-26T06:03:03.797Z,1.98
2019-03-26T06:05:34.212Z,1.94
2019-03-26T06:08:06.310Z,2.02
2019-03-26T06:10:38.258Z,2.01
2019-03-26T06:13:10.206Z,2.03
2019-03-26T06:15:42.179Z,2.03
2019-03-26T06:18:14.154Z,2.03
2019-03-26T06:20:46.395Z,2.07
2019-03-26T06:23:18.726Z,2.14
2019-03-26T06:25:50.847Z,2.12
2019-03-26T06:28:22.937Z,2.19
2019-03-26T06:30:54.880Z,2.21
2019-03-26T06:33:26.974Z,2.22
2019-03-26T06:35:59.321Z,2.25
2019-03-26T06:38:31.584Z,2.30
2019-03-26T06:41:03.817Z,2.30
2019-03-26T06:43:36.046Z,2.34
2019-03-26T06:46:08.129Z,2.38
2019-03-26T06:48:41.265Z,2.44
2019-03-26T06:51:13.450Z,2.51
2019-03-26T06:53:45.491Z,2.57
2019-03-26T06:56:17.410Z,2.65
2019-03-26T06:58:50.565Z,2.62
2019-03-26T07:01:23.005Z,2.63
2019-03-26T07:03:55.170Z,2.71
2019-03-26T07:06:27.270Z,2.82
2019-03-26T07:08:59.565Z,2.86
2019-03-26T07:11:33.390Z,2.94
2019-03-26T07:14:06.099Z,2.96
2019-03-26T07:16:38.240Z,2.99
2019-03-26T07:19:10.571Z,3.09
2019-03-26T07:21:49.460Z,3.16
2019-03-26T07:24:16.665Z,3.17
2019-03-26T07:26:50.433Z,3.27
2019-03-26T07:29:23.557Z,3.42
2019-03-26T07:31:56.097Z,3.89
2019-03-26T07:34:27.996Z,4.71
2019-03-26T07:37:00.392Z,5.15
2019-03-26T07:39:32.470Z,5.26
2019-03-26T07:42:04.580Z,4.84
2019-03-26T07:44:37.665Z,4.64
2019-03-26T07:47:09.838Z,4.49
2019-03-26T07:49:42.080Z,4.27
2019-03-26T07:52:15.635Z,4.52
2019-03-26T07:54:48.272Z,4.52
2019-03-26T07:57:20.379Z,4.58
2019-03-26T07:59:52.432Z,4.57
2019-03-26T08:02:26.566Z,4.42
2019-03-26T08:04:58.545Z,4.23
2019-03-26T08:07:30.772Z,4.12
2019-03-26T08:10:02.963Z,4.04
2019-03-26T08:12:35.240Z,4.08
2019-03-26T08:15:08.154Z,4.04
2019-03-26T08:17:40.514Z,4.07
2019-03-26T08:20:12.880Z,4.04
2019-03-26T08:22:45.157Z,4.08
2019-03-26T08:25:17.689Z,4.02
2019-03-26T08:27:50.031Z,4.01
2019-03-26T08:30:22.173Z,3.98
2019-03-26T08:32:54.436Z,4.04
2019-03-26T08:35:26.371Z,4.08
2019-03-26T08:38:11.375Z,4.09
2019-03-26T08:40:32.313Z,4.10
2019-03-26T08:43:04.607Z,4.09
2019-03-26T08:45:36.692Z,4.08
2019-03-26T08:48:09.216Z,4.12
2019-03-26T08:50:41.322Z,4.11
2019-03-26T08:53:13.457Z,4.24
2019-03-26T08:55:45.427Z,4.30
2019-03-26T08:58:17.744Z,4.42
2019-03-26T09:00:49.871Z,4.49
2019-03-26T09:03:22.023Z,4.59
2019-03-26T09:05:54.064Z,4.68
2019-03-26T09:08:26.092Z,4.77
2019-03-26T09:10:58.285Z,4.81
2019-03-26T09:13:30.581Z,4.78
2019-03-26T09:16:02.743Z,4.73
2019-03-26T09:18:34.624Z,4.78
2019-03-26T09:21:07.131Z,4.81
2019-03-26T09:23:39.178Z,4.87
2019-03-26T09:26:11.363Z,4.91
2019-03-26T09:28:43.506Z,4.86
2019-03-26T09:31:15.683Z,4.87
2019-03-26T09:33:48.080Z,4.86
2019-03-26T09:36:20.314Z,4.86
2019-03-26T09:38:52.645Z,4.83
2019-03-26T09:41:25.132Z,4.79
2019-03-26T09:43:57.491Z,4.81
2019-03-26T09:46:29.951Z,4.74
2019-03-26T09:49:02.115Z,4.75
2019-03-26T09:51:34.529Z,4.82
2019-03-26T09:54:06.980Z,4.86
2019-03-26T09:56:39.539Z,4.82
2019-03-26T09:59:11.598Z,4.83
2019-03-26T10:01:43.539Z,4.84
2019-03-26T10:04:15.577Z,4.95
2019-03-26T10:06:47.566Z,4.90
2019-03-26T10:09:19.795Z,5.01
2019-03-26T10:11:51.690Z,5.01
2019-03-26T10:14:23.895Z,5.07
2019-03-26T10:16:56.069Z,5.15
2019-03-26T10:19:28.272Z,5.17
2019-03-26T10:22:00.584Z,5.31
2019-03-26T10:24:33.603Z,5.20
2019-03-26T10:27:07.194Z,5.15
2019-03-26T10:29:39.253Z,5.15
2019-03-26T10:32:11.391Z,5.07
2019-03-26T10:34:43.707Z,5.10
2019-03-26T10:37:16.212Z,5.09
2019-03-26T10:39:48.570Z,5.16
2019-03-26T10:42:20.750Z,5.22
2019-03-26T10:44:53.348Z,5.27
2019-03-26T10:47:25.463Z,5.34
2019-03-26T10:49:57.359Z,5.34
2019-03-26T10:52:34.273Z,5.45
2019-03-26T10:55:05.764Z,5.42
2019-03-26T10:57:38.135Z,5.46
2019-03-26T11:00:10.722Z,5.68
2019-03-26T11:02:42.867Z,6.41
2019-03-26T11:05:15.489Z,6.61
2019-03-26T11:07:48.472Z,7.13
2019-03-26T11:10:20.502Z,7.47
2019-03-26T11:12:52.863Z,7.78
2019-03-26T11:15:24.878Z,7.67
2019-03-26T11:17:56.770Z,7.64
2019-03-26T11:20:28.964Z,7.36
2019-03-26T11:23:01.490Z,8.00
2019-03-26T11:25:33.619Z,8.61
2019-03-26T11:28:05.973Z,9.45
2019-03-26T11:30:37.868Z,9.45
2019-03-26T11:33:09.927Z,8.46
2019-03-26T11:35:42.303Z,8.79
2019-03-26T11:38:14.505Z,8.42
2019-03-26T11:40:46.600Z,8.33
2019-03-26T11:43:19.060Z,7.31
2019-03-26T11:45:51.311Z,6.82
2019-03-26T11:48:23.271Z,6.68
2019-03-26T11:50:55.592Z,6.53
2019-03-26T11:53:27.809Z,6.50
2019-03-26T11:55:59.818Z,6.44
2019-03-26T11:58:31.845Z,6.36
2019-03-26T12:01:05.031Z,6.32
2019-03-26T12:03:37.047Z,6.34
2019-03-26T12:06:09.332Z,6.37
2019-03-26T12:08:41.280Z,6.39
2019-03-26T12:11:13.231Z,6.41
2019-03-26T12:13:45.450Z,6.52
2019-03-26T12:16:17.572Z,6.51
2019-03-26T12:18:49.639Z,6.48
2019-03-26T12:21:21.822Z,6.42
2019-03-26T12:23:53.886Z,6.38
2019-03-26T12:26:26.117Z,6.43
2019-03-26T12:28:58.361Z,6.53
2019-03-26T12:31:30.287Z,6.52
2019-03-26T12:34:03.528Z,6.54
2019-03-26T12:36:40.193Z,6.58
2019-03-26T12:39:09.589Z,6.54
2019-03-26T12:41:41.590Z,6.57
2019-03-26T12:44:13.548Z,6.62
2019-03-26T12:46:45.578Z,6.68
2019-03-26T12:49:17.849Z,6.74
2019-03-26T12:51:51.041Z,6.72
2019-03-26T12:54:23.036Z,6.73
2019-03-26T12:56:55.164Z,6.61
2019-03-26T12:59:27.259Z,6.63
2019-03-26T13:01:59.271Z,6.76
2019-03-26T13:04:31.517Z,6.67
2019-03-26T13:07:03.766Z,6.74
2019-03-26T13:09:35.871Z,6.81
2019-03-26T13:12:08.062Z,8.58
2019-03-26T13:14:40.195Z,8.80
2019-03-26T13:17:12.213Z,8.09
2019-03-26T13:19:44.255Z,7.90
2019-03-26T13:22:16.043Z,7.62
2019-03-26T13:24:48.256Z,7.82
2019-03-26T13:27:20.342Z,9.01
2019-03-26T13:29:52.427Z,9.25
2019-03-26T13:32:24.500Z,9.03
2019-03-26T13:34:56.291Z,9.85
2019-03-26T13:37:28.200Z,9.94
2019-03-26T13:40:00.587Z,8.87
2019-03-26T13:42:32.822Z,8.79
2019-03-26T13:45:05.124Z,8.47
2019-03-26T13:47:36.950Z,8.01
2019-03-26T13:50:09.463Z,7.76
2019-03-26T13:52:41.717Z,7.67
2019-03-26T13:55:14.143Z,7.67
2019-03-26T13:57:46.130Z,7.69
2019-03-26T14:00:24.096Z,7.73
2019-03-26T14:02:56.158Z,7.51
2019-03-26T14:05:28.340Z,7.46
2019-03-26T14:08:00.513Z,7.22
2019-03-26T14:10:40.718Z,7.18
2019-03-26T14:13:06.858Z,7.34
2019-03-26T14:15:39.132Z,7.41
2019-03-26T14:18:11.087Z,7.51
2019-03-26T14:20:42.985Z,7.24
2019-03-26T14:23:15.307Z,6.66
2019-03-26T14:25:47.208Z,4.99
2019-03-26T14:28:19.045Z,4.63
2019-03-26T14:30:51.428Z,4.61
2019-03-26T14:33:23.376Z,4.68
2019-03-26T14:35:55.406Z,4.76
2019-03-26T14:38:27.571Z,4.97
2019-03-26T14:40:59.555Z,5.24
2019-03-26T14:43:31.712Z,5.28
2019-03-26T14:46:04.020Z,5.33
2019-03-26T14:48:36.104Z,5.42
2019-03-26T14:51:08.177Z,5.44
2019-03-26T14:53:40.231Z,5.62
2019-03-26T14:56:12.412Z,5.57
2019-03-26T14:58:44.586Z,5.58
2019-03-26T15:01:16.967Z,5.63
2019-03-26T15:03:49.665Z,5.77
2019-03-26T15:06:22.237Z,5.87
2019-03-26T15:08:54.255Z,5.94
2019-03-26T15:11:26.101Z,5.99
2019-03-26T15:13:58.145Z,6.10
2019-03-26T15:16:30.405Z,6.26
2019-03-26T15:19:03.552Z,6.29
2019-03-26T15:21:35.608Z,6.36
2019-03-26T15:24:07.654Z,6.28
2019-03-26T15:26:39.869Z,6.31
2019-03-26T15:29:12.018Z,6.25
2019-03-26T15:31:45.107Z,6.38
2019-03-26T15:34:17.040Z,6.26
2019-03-26T15:36:49.165Z,6.09
2019-03-26T15:39:21.255Z,6.01
2019-03-26T15:41:53.228Z,6.13
2019-03-26T15:44:25.397Z,6.18
2019-03-26T15:46:57.535Z,6.25
2019-03-26T15:49:29.859Z,6.27
2019-03-26T15:52:04.697Z,6.30
2019-03-26T15:54:36.954Z,6.35
2019-03-26T15:57:10.901Z,6.46
2019-03-26T15:59:43.104Z,6.54
2019-03-26T16:02:15.125Z,6.69
2019-03-26T16:04:47.039Z,6.76
2019-03-26T16:07:18.975Z,6.70
2019-03-26T16:09:51.712Z,6.51
2019-03-26T16:12:23.858Z,6.33
2019-03-26T16:14:55.934Z,5.91
2019-03-26T16:17:28.083Z,5.60
2019-03-26T16:20:00.360Z,5.45
2019-03-26T16:22:32.816Z,5.18
2019-03-26T16:25:05.397Z,5.08
2019-03-26T16:27:35.769Z,4.87
2019-03-26T16:30:06.414Z,4.84
2019-03-26T16:32:36.962Z,4.81
2019-03-26T16:35:08.592Z,4.74
2019-03-26T16:37:38.954Z,4.62
2019-03-26T16:40:09.497Z,4.63
2019-03-26T16:42:41.707Z,4.52
2019-03-26T16:45:12.463Z,4.64
2019-03-26T16:47:43.126Z,4.58
2019-03-26T16:50:13.601Z,4.41
2019-03-26T16:52:44.486Z,4.46
2019-03-26T16:55:15.158Z,4.33
2019-03-26T16:57:45.942Z,4.38
2019-03-26T17:00:18.224Z,4.24
2019-03-26T17:02:49.266Z,4.15
2019-03-26T17:05:22.811Z,4.18
2019-03-26T17:07:53.247Z,4.15
2019-03-26T17:10:24.776Z,4.09
2019-03-26T17:12:55.247Z,3.88
2019-03-26T17:15:25.882Z,3.92
2019-03-26T17:17:56.318Z,3.91
2019-03-26T17:20:27.229Z,3.99
2019-03-26T17:22:57.746Z,3.91
2019-03-26T17:25:28.097Z,3.81
2019-03-26T17:27:58.922Z,3.90
2019-03-26T17:30:29.339Z,3.91
2019-03-26T17:33:00.184Z,3.92
2019-03-26T17:35:30.662Z,3.92
2019-03-26T17:38:01.276Z,3.92
2019-03-26T17:40:31.968Z,3.92
2019-03-26T17:43:03.245Z,3.83
2019-03-26T17:45:33.948Z,3.77
2019-03-26T17:48:04.439Z,3.79
2019-03-26T17:50:34.950Z,3.73
2019-03-26T17:53:06.601Z,3.68
2019-03-26T17:55:37.506Z,3.66
2019-03-26T17:58:09.074Z,3.61
2019-03-26T18:00:41.045Z,3.56
2019-03-26T18:03:25.643Z,3.48
2019-03-26T18:05:45.084Z,3.45
2019-03-26T18:08:15.742Z,3.42
2019-03-26T18:10:46.370Z,3.38
2019-03-26T18:13:17.130Z,3.33
2019-03-26T18:15:47.701Z,3.33
2019-03-26T18:19:24.437Z,3.28
2019-03-26T18:21:56.487Z,3.26
2019-03-26T18:24:28.392Z,3.28
2019-03-26T18:27:00.375Z,3.31
2019-03-26T18:29:32.293Z,3.33
2019-03-26T18:32:04.667Z,3.38
2019-03-26T18:34:36.886Z,3.38
2019-03-26T18:37:09.081Z,3.39
2019-03-26T18:39:41.393Z,3.41
2019-03-26T18:42:13.347Z,3.37
2019-03-26T18:44:45.437Z,3.36
2019-03-26T18:47:17.811Z,3.33
2019-03-26T18:49:49.740Z,3.31
2019-03-26T18:52:21.923Z,3.22
2019-03-26T18:54:53.967Z,3.26
2019-03-26T18:57:26.510Z,3.26
2019-03-26T18:59:58.562Z,3.20
2019-03-26T19:02:30.661Z,3.27
2019-03-26T19:05:02.692Z,3.30
2019-03-26T19:07:35.156Z,3.24
2019-03-26T19:10:08.614Z,3.15
2019-03-26T19:12:40.778Z,3.17
2019-03-26T19:15:12.915Z,3.16
2019-03-26T19:17:45.175Z,3.14
2019-03-26T19:20:17.374Z,3.20
2019-03-26T19:22:49.421Z,3.07
2019-03-26T19:25:21.595Z,3.02
2019-03-26T19:27:53.692Z,3.07
2019-03-26T19:30:25.670Z,3.13
2019-03-26T19:32:58.090Z,3.12
2019-03-26T19:35:30.149Z,3.12
2019-03-26T19:38:02.645Z,3.08
2019-03-26T19:40:34.992Z,3.11
2019-03-26T19:43:11.323Z,3.03
2019-03-26T19:45:41.194Z,2.95
2019-03-26T19:48:13.234Z,2.86
2019-03-26T19:50:45.167Z,2.91
2019-03-26T19:53:17.524Z,2.90
2019-03-26T19:55:49.808Z,2.84
2019-03-26T19:58:22.059Z,2.79
2019-03-26T20:00:54.750Z,2.83
2019-03-26T20:03:26.904Z,2.85
2019-03-26T20:06:12.493Z,2.84
2019-03-26T20:08:33.138Z,2.80
2019-03-26T20:11:05.474Z,2.86
2019-03-26T20:13:37.940Z,2.81
2019-03-26T20:16:11.177Z,2.70
2019-03-26T20:18:43.464Z,2.58
2019-03-26T20:21:15.768Z,2.46
2019-03-26T20:23:48.228Z,2.44
2019-03-26T20:26:20.248Z,2.40
2019-03-26T20:28:52.368Z,2.41
2019-03-26T20:31:24.658Z,2.25
2019-03-26T20:33:57.016Z,2.24
2019-03-26T20:36:30.507Z,2.20
2019-03-26T20:39:02.688Z,2.14
2019-03-26T20:41:36.488Z,2.08
2019-03-26T20:44:08.716Z,2.01
2019-03-26T20:46:40.720Z,2.00
2019-03-26T20:49:13.246Z,1.91
2019-03-26T20:51:45.407Z,1.91
2019-03-26T20:54:17.738Z,1.87
2019-03-26T20:56:50.575Z,1.87
2019-03-26T20:59:23.098Z,1.81
2019-03-26T21:01:55.470Z,1.81
2019-03-26T21:04:27.579Z,1.81
2019-03-26T21:06:59.932Z,1.75
2019-03-26T21:09:32.063Z,1.77
2019-03-26T21:12:04.630Z,1.72
2019-03-26T21:14:36.873Z,1.65
2019-03-26T21:17:09.083Z,1.66
2019-03-26T21:19:40.901Z,1.65
2019-03-26T21:22:13.062Z,1.62
2019-03-26T21:24:45.191Z,1.60
2019-03-26T21:27:17.762Z,1.54
2019-03-26T21:29:49.827Z,1.58
2019-03-26T21:32:22.083Z,1.61
2019-03-26T21:34:54.414Z,1.58
2019-03-26T21:37:26.490Z,1.60
2019-03-26T21:39:58.348Z,1.55
2019-03-26T21:42:30.228Z,1.51
2019-03-26T21:45:00.610Z,1.48
2019-03-26T21:47:31.624Z,1.48
2019-03-26T21:50:02.993Z,1.37
2019-03-26T21:52:33.542Z,1.39
2019-03-26T21:55:04.361Z,1.41
2019-03-26T21:57:35.047Z,1.36
2019-03-26T22:00:06.902Z,1.33
2019-03-26T22:02:38.890Z,1.23
2019-03-26T22:05:09.552Z,1.28
2019-03-26T22:07:40.344Z,1.28
2019-03-26T22:10:11.975Z,1.27
2019-03-26T22:12:42.868Z,1.22
2019-03-26T22:15:13.308Z,1.25
2019-03-26T22:17:44.057Z,1.19
2019-03-26T22:20:14.850Z,1.19
2019-03-26T22:22:45.440Z,1.19
2019-03-26T22:25:15.927Z,1.14
2019-03-26T22:27:46.691Z,1.12
2019-03-26T22:30:18.658Z,0.94
2019-03-26T22:32:49.010Z,0.89
2019-03-26T22:35:21.385Z,0.88
2019-03-26T22:37:52.072Z,0.88
2019-03-26T22:40:23.077Z,0.92
2019-03-26T22:42:53.670Z,0.84
2019-03-26T22:45:24.296Z,0.90
2019-03-26T22:47:55.007Z,0.90
2019-03-26T22:50:25.781Z,0.93
2019-03-26T22:52:56.657Z,0.91
2019-03-26T22:55:27.196Z,0.84
2019-03-26T22:57:58.149Z,0.86
2019-03-26T23:00:30.434Z,0.81
2019-03-26T23:03:02.638Z,0.70
2019-03-26T23:05:33.199Z,0.70
2019-03-26T23:08:03.944Z,0.68
2019-03-26T23:10:34.938Z,0.58
2019-03-26T23:13:05.755Z,0.64
2019-03-26T23:15:36.420Z,0.54
2019-03-26T23:18:06.995Z,0.55
2019-03-26T23:20:37.791Z,0.46
2019-03-26T23:23:08.430Z,0.51
2019-03-26T23:25:39.147Z,0.41
2019-03-26T23:28:09.805Z,0.46
2019-03-26T23:30:40.730Z,0.38
2019-03-26T23:33:11.146Z,0.50
2019-03-26T23:35:41.749Z,0.46
2019-03-26T23:38:12.463Z,0.47
2019-03-26T23:40:43.098Z,0.45
2019-03-26T23:43:13.622Z,0.53
2019-03-26T23:45:44.331Z,0.56
2019-03-26T23:48:14.959Z,0.57
2019-03-26T23:50:45.413Z,0.56
2019-03-26T23:53:16.425Z,0.56
2019-03-26T23:55:47.483Z,0.55
2019-03-26T23:58:17.969Z,0.54
